Hobart, Indiana
Current Conditions -  °F | °C
As of 11:15 PM on Friday 21 Nov 2014 (Local Time) from KGYY Reporting Station
Overcast Overcast  
Wind Chill: 27°   Ceiling: 3300
Heat Index: 35°   Visibility: 10mi
Dew Point: 11°   Wind: 12mph
Humidity: 38%   Direction: 180°S
Pressure: 30.21"   Gusts: 21mph
Location:  41.53°N, 87.25°W
Report Text: KGYY 220515Z AUTO 18010G18KT 10SM SCT027 OVC033 02/M11 A3021 RMK AO2 T00171114
Loading
Personal Weather Stations






























Interactive Weather Map New forecast layout! Learn more

10-Day Weather Forecast

Advertisements
Track Severe Weather on mobile